Time;durP1;ratioP1;P1;durP2;ratioP2;P2;SDS_P1;SDS_P2;PMS_P1;PMS_P2;Temp;Humidity;BMP_temperature;BMP_pressure;BME280_temperature;BME280_humidity;BME280_pressure;Samples;Min_cycle;Max_cycle;Signal;HPM_P1;HPM_P2
2022/05/23 00:00:26;;;;;;;22.38;12.80;;;;;;;23.33;44.58;100935.63;5083201;28;20044;-51
2022/05/23 00:02:54;;;;;;;18.50;11.38;;;;;;;23.34;44.30;100934.59;5082906;28;20450;-51
2022/05/23 00:05:20;;;;;;;16.10;10.85;;;;;;;23.33;44.89;100924.81;5081196;28;20169;-49
2022/05/23 00:07:48;;;;;;;21.67;12.20;;;;;;;23.32;44.45;100928.56;5078667;28;20056;-52
2022/05/23 00:10:19;;;;;;;19.58;12.02;;;;;;;23.30;44.95;100917.91;5080382;28;20050;-52
2022/05/23 00:12:45;;;;;;;18.67;11.77;;;;;;;23.30;44.80;100912.50;5080380;28;20067;-51
2022/05/23 00:15:12;;;;;;;18.15;11.45;;;;;;;23.30;45.00;100911.66;5079699;28;20517;-51
2022/05/23 00:17:39;;;;;;;18.48;12.13;;;;;;;23.29;45.11;100910.81;5085193;28;20041;-49
2022/05/23 00:20:09;;;;;;;18.52;12.02;;;;;;;23.29;44.83;100907.28;5085639;28;20040;-51
2022/05/23 00:22:37;;;;;;;21.17;11.40;;;;;;;23.27;45.06;100893.94;5087118;28;20382;-49
2022/05/23 00:25:07;;;;;;;22.45;11.88;;;;;;;23.28;44.97;100886.69;5086623;28;20055;-52
2022/05/23 00:27:37;;;;;;;19.67;11.98;;;;;;;23.26;45.42;100886.03;5089406;28;20105;-50
2022/05/23 00:30:07;;;;;;;17.98;10.63;;;;;;;23.25;45.33;100884.34;5086077;28;20044;-50
2022/05/23 00:35:20;;;;;;;22.13;11.68;;;;;;;23.24;45.21;100872.69;5081592;28;20036;-49
2022/05/23 00:37:55;;;;;;;18.27;11.30;;;;;;;23.23;44.98;100864.75;5079891;28;20610;-50
2022/05/23 00:40:31;;;;;;;;;;;;;;;23.22;45.53;100868.50;5083833;28;20048;-51
2022/05/23 00:43:16;;;;;;;18.85;10.70;;;;;;;23.25;45.50;100860.00;5078338;28;20306;-49
2022/05/23 00:45:48;;;;;;;19.23;11.30;;;;;;;23.22;45.28;100854.97;5080829;28;20060;-49
2022/05/23 00:48:18;;;;;;;15.88;10.90;;;;;;;23.21;45.51;100843.31;5081865;28;20044;-50
2022/05/23 00:50:52;;;;;;;19.58;10.90;;;;;;;23.19;45.30;100839.13;5079916;28;20043;-49
2022/05/23 00:53:28;;;;;;;17.92;11.02;;;;;;;23.18;45.54;100838.28;5076801;28;20416;-50
2022/05/23 00:55:56;;;;;;;19.20;10.75;;;;;;;23.18;45.85;100846.38;5078835;28;20149;-51
2022/05/23 00:58:27;;;;;;;16.23;10.45;;;;;;;23.17;45.90;100846.59;5083157;28;20048;-49
2022/05/23 01:00:58;;;;;;;14.80;10.13;;;;;;;23.17;45.73;100838.47;5082420;28;20074;-49
2022/05/23 01:03:25;;;;;;;18.20;10.68;;;;;;;23.15;45.50;100834.06;5079733;28;20056;-50
2022/05/23 01:05:54;;;;;;;17.38;10.45;;;;;;;23.14;45.56;100827.00;5082125;28;20133;-49
2022/05/23 01:08:21;;;;;;;16.67;11.00;;;;;;;23.15;45.84;100828.66;5081121;28;20389;-48
2022/05/23 01:10:48;;;;;;;18.13;10.93;;;;;;;23.14;45.81;100823.47;5083185;28;20051;-49
2022/05/23 01:13:16;;;;;;;17.33;10.52;;;;;;;23.13;46.13;100810.97;5078823;28;20322;-53
2022/05/23 01:15:49;;;;;;;16.23;9.85;;;;;;;23.12;46.00;100812.00;5080780;28;20036;-49
2022/05/23 01:18:15;;;;;;;16.33;10.75;;;;;;;23.12;45.66;100806.59;5076343;28;20632;-54
2022/05/23 01:20:46;;;;;;;16.77;9.50;;;;;;;23.11;46.00;100811.13;5081888;28;20046;-48
2022/05/23 01:23:42;;;;;;;15.40;10.00;;;;;;;23.09;45.70;100821.31;5080011;28;20044;-52
2022/05/23 01:26:09;;;;;;;16.85;9.88;;;;;;;23.10;45.90;100825.69;5082587;28;20044;-49
2022/05/23 01:28:38;;;;;;;14.05;8.85;;;;;;;23.08;45.96;100835.88;5080877;28;20040;-50
2022/05/23 01:31:06;;;;;;;17.02;10.32;;;;;;;23.07;46.12;100823.34;5080183;28;20044;-50
2022/05/23 01:33:33;;;;;;;14.32;9.35;;;;;;;23.07;46.75;100828.75;5076972;28;20094;-50
2022/05/23 01:35:59;;;;;;;15.68;9.95;;;;;;;23.06;46.46;100818.16;5080783;28;20116;-51
2022/05/23 01:38:27;;;;;;;14.75;9.77;;;;;;;23.06;46.72;100832.50;5082115;28;20437;-51
2022/05/23 01:40:58;;;;;;;16.67;9.40;;;;;;;23.05;46.71;100830.00;5089008;28;20320;-52
2022/05/23 01:43:25;;;;;;;14.57;9.35;;;;;;;23.05;46.53;100830.00;5083923;28;20128;-49
2022/05/23 01:45:52;;;;;;;15.38;9.52;;;;;;;23.04;46.80;100834.56;5077318;28;20470;-52
2022/05/23 01:48:18;;;;;;;12.82;8.95;;;;;;;23.04;46.54;100829.16;5079624;28;20055;-51
2022/05/23 01:50:45;;;;;;;14.73;9.00;;;;;;;23.03;47.15;100822.06;5078266;28;20134;-51
2022/05/23 01:53:11;;;;;;;15.70;9.82;;;;;;;23.04;46.85;100820.22;5079878;28;20076;-48
2022/05/23 01:55:38;;;;;;;13.88;9.02;;;;;;;23.02;46.64;100812.28;5081694;28;20043;-48
2022/05/23 01:58:04;;;;;;;15.65;9.32;;;;;;;23.02;46.69;100811.44;5081182;28;20052;-53
2022/05/23 02:03:16;;;;;;;13.38;8.63;;;;;;;23.01;47.03;100810.59;5077660;28;20043;-51
2022/05/23 02:05:43;;;;;;;13.93;8.68;;;;;;;23.00;46.98;100808.94;5080375;28;20484;-51
2022/05/23 02:08:09;;;;;;;14.10;9.00;;;;;;;22.99;47.17;100806.41;5081555;28;20052;-49
2022/05/23 02:10:36;;;;;;;12.40;8.52;;;;;;;22.98;47.25;100808.28;5080476;28;20080;-51
2022/05/23 02:13:04;;;;;;;15.85;8.38;;;;;;;22.98;47.44;100800.16;5079181;28;20131;-52
2022/05/23 02:15:32;;;;;;;13.40;7.63;;;;;;;22.97;47.55;100806.59;5080829;28;20056;-48
2022/05/23 02:18:01;;;;;;;13.93;8.95;;;;;;;22.97;47.36;100806.59;5080072;28;20063;-52
2022/05/23 02:20:28;;;;;;;12.93;8.18;;;;;;;22.96;47.27;100802.22;5087405;28;20032;-50
2022/05/23 02:22:55;;;;;;;12.75;7.72;;;;;;;22.97;47.52;100805.75;5088128;28;20169;-49
2022/05/23 02:25:23;;;;;;;13.15;8.18;;;;;;;22.95;47.19;100792.41;5083229;28;20110;-50
2022/05/23 02:27:50;;;;;;;12.50;8.45;;;;;;;22.95;47.74;100789.72;5079739;28;20071;-49
2022/05/23 02:30:18;;;;;;;14.02;8.82;;;;;;;22.94;47.99;100793.44;5085066;28;20048;-49
2022/05/23 02:32:45;;;;;;;11.38;7.70;;;;;;;22.94;47.66;100781.81;5079110;28;20048;-52
2022/05/23 02:35:14;;;;;;;11.18;7.07;;;;;;;22.93;47.78;100780.97;5080598;28;20052;-50
2022/05/23 02:37:41;;;;;;;12.65;8.25;;;;;;;22.92;47.91;100779.31;5079765;28;20315;-50
2022/05/23 02:40:08;;;;;;;14.07;8.07;;;;;;;22.93;47.67;100782.84;5080452;28;20047;-52
2022/05/23 02:42:35;;;;;;;11.57;7.15;;;;;;;22.90;47.71;100771.38;5079523;28;20051;-49
2022/05/23 02:45:02;;;;;;;11.48;7.72;;;;;;;22.90;48.03;100763.25;5086801;28;20135;-49
2022/05/23 02:47:29;;;;;;;11.63;7.82;;;;;;;22.90;48.05;100762.38;5086331;28;20040;-51
2022/05/23 02:49:56;;;;;;;10.85;7.53;;;;;;;22.89;47.88;100756.16;5083201;28;20132;-50
2022/05/23 02:52:22;;;;;;;12.68;7.50;;;;;;;22.89;48.08;100752.63;5087874;28;20097;-51
2022/05/23 02:54:49;;;;;;;11.48;7.65;;;;;;;22.89;47.90;100739.09;5064399;28;20058;-50
2022/05/23 02:57:16;;;;;;;11.57;7.13;;;;;;;22.88;48.17;100745.53;5084593;28;20131;-49
2022/05/23 02:59:42;;;;;;;10.65;7.35;;;;;;;22.87;48.20;100743.84;5085916;28;20036;-50
2022/05/23 03:04:54;;;;;;;14.20;7.68;;;;;;;22.85;48.42;100725.13;5084305;28;20037;-47
2022/05/23 03:07:21;;;;;;;11.05;7.05;;;;;;;22.85;48.07;100735.94;5085976;28;20058;-50
2022/05/23 03:09:47;;;;;;;12.00;7.03;;;;;;;22.84;48.31;100725.31;5084570;28;20327;-50
2022/05/23 03:12:14;;;;;;;10.35;6.93;;;;;;;22.83;48.29;100712.81;5086249;28;20511;-50
2022/05/23 03:14:41;;;;;;;11.50;7.38;;;;;;;22.82;48.20;100711.16;5086041;28;20048;-48
2022/05/23 03:17:08;;;;;;;11.65;6.75;;;;;;;22.81;48.52;100699.50;5083284;28;20644;-47
2022/05/23 03:19:37;;;;;;;11.55;6.97;;;;;;;22.80;48.39;100697.84;5083660;28;20055;-50
2022/05/23 03:27:36;;;;;;;11.10;6.70;;;;;;;22.77;48.86;100678.44;5086100;28;20155;-49
2022/05/23 03:30:05;;;;;;;12.18;7.18;;;;;;;22.76;48.65;100677.63;5079119;28;20058;-51
2022/05/23 03:32:32;;;;;;;9.57;6.13;;;;;;;22.77;48.38;100667.66;5077612;28;20178;-47
2022/05/23 03:34:58;;;;;;;11.20;6.10;;;;;;;22.75;48.61;100669.69;5078296;28;20121;-52
2022/05/23 03:37:25;;;;;;;9.35;6.47;;;;;;;22.75;48.45;100666.97;5080252;28;20060;-50
2022/05/23 03:39:52;;;;;;;8.48;5.95;;;;;;;22.73;48.46;100660.94;5057784;28;20163;-51
2022/05/23 03:42:18;;;;;;;11.30;6.03;;;;;;;22.73;48.97;100650.13;5078188;28;20415;-51
2022/05/23 03:44:46;;;;;;;10.15;5.90;;;;;;;22.72;48.73;100645.75;5077760;28;20185;-50
2022/05/23 03:47:12;;;;;;;10.30;5.47;;;;;;;22.70;48.73;100642.41;5077258;28;20441;-52
2022/05/23 03:49:39;;;;;;;10.25;5.75;;;;;;;22.71;48.74;100631.38;5076221;28;20048;-51
2022/05/23 03:52:05;;;;;;;10.00;6.13;;;;;;;22.70;49.00;100620.78;5079509;28;20055;-51
2022/05/23 03:54:32;;;;;;;9.55;5.30;;;;;;;22.69;48.90;100625.34;5077551;28;20066;-51
2022/05/23 03:57:00;;;;;;;8.15;5.80;;;;;;;22.68;48.81;100612.88;5081320;28;20485;-48
2022/05/23 03:59:28;;;;;;;9.05;6.32;;;;;;;22.68;49.23;100610.19;5081151;28;21742;-48
2022/05/23 04:01:57;;;;;;;7.60;5.07;;;;;;;22.67;48.82;100600.38;5081613;28;20227;-49
2022/05/23 04:04:25;;;;;;;8.57;5.70;;;;;;;22.67;48.90;100598.53;5082904;28;20048;-49
2022/05/23 04:06:52;;;;;;;7.80;5.32;;;;;;;22.66;48.97;100596.84;5083101;28;20135;-47
2022/05/23 04:09:19;;;;;;;8.88;5.32;;;;;;;22.66;48.89;100593.31;5079922;28;20067;-51
2022/05/23 04:11:46;;;;;;;8.13;5.40;;;;;;;22.63;49.41;100589.13;5081845;28;21160;-50
2022/05/23 04:14:12;;;;;;;10.35;5.63;;;;;;;22.65;48.89;100605.16;5080045;28;20036;-49
2022/05/23 04:16:39;;;;;;;10.20;5.55;;;;;;;22.63;48.96;100599.94;5084901;28;20032;-48
2022/05/23 04:19:06;;;;;;;9.18;5.50;;;;;;;22.64;48.94;100598.06;5084127;28;20042;-49
2022/05/23 04:21:32;;;;;;;7.20;4.55;;;;;;;22.63;49.10;100599.94;5079963;28;20051;-51
2022/05/23 04:23:59;;;;;;;7.97;5.18;;;;;;;22.63;49.18;100599.94;5080481;28;20048;-50
2022/05/23 04:26:25;;;;;;;8.25;4.97;;;;;;;22.62;49.09;100602.81;5089790;28;20385;-49
2022/05/23 04:28:52;;;;;;;9.65;5.00;;;;;;;22.62;49.03;100598.25;5083031;28;20050;-48
2022/05/23 04:31:19;;;;;;;6.78;4.55;;;;;;;22.62;49.29;100606.34;5084754;28;20668;-48
2022/05/23 04:36:31;;;;;;;7.60;5.13;;;;;;;22.63;49.08;100604.47;5084224;28;20040;-50
2022/05/23 04:38:58;;;;;;;10.02;4.60;;;;;;;22.63;49.01;100602.66;5080875;28;20046;-49
2022/05/23 04:41:24;;;;;;;6.88;4.50;;;;;;;22.63;49.41;100594.53;5081322;28;20044;-46
2022/05/23 04:43:57;;;;;;;8.10;4.68;;;;;;;22.62;49.05;100595.53;5090548;28;20048;-47
2022/05/23 04:46:24;;;;;;;7.05;4.57;;;;;;;22.63;49.30;100589.13;5089880;28;20052;-49
2022/05/23 04:51:36;;;;;;;9.30;4.88;;;;;;;22.63;49.02;100582.88;5084714;28;20760;-48
2022/05/23 04:54:03;;;;;;;7.25;4.47;;;;;;;22.64;49.08;100587.28;5091934;28;20334;-48
2022/05/23 04:56:29;;;;;;;9.43;4.50;;;;;;;22.63;49.33;100566.66;5086873;28;20052;-48
2022/05/23 04:58:57;;;;;;;7.10;4.07;;;;;;;22.63;49.30;100558.56;5083150;28;20054;-50
2022/05/23 05:01:24;;;;;;;6.45;3.88;;;;;;;22.63;49.26;100548.63;5083215;28;20614;-50
2022/05/23 05:03:53;;;;;;;7.70;4.13;;;;;;;22.63;48.97;100551.31;5087137;28;20191;-50
2022/05/23 05:06:21;;;;;;;6.70;4.28;;;;;;;22.64;49.16;100552.97;5085183;28;20040;-51
2022/05/23 05:08:49;;;;;;;7.28;4.03;;;;;;;22.65;48.88;100549.25;5086695;28;20055;-50
2022/05/23 05:11:15;;;;;;;6.15;4.10;;;;;;;22.64;49.31;100544.88;5079386;28;20040;-47
2022/05/23 05:13:43;;;;;;;6.15;3.88;;;;;;;22.66;49.10;100544.69;5083884;28;20054;-51
2022/05/23 05:16:10;;;;;;;13.25;3.95;;;;;;;22.65;49.31;100551.94;5085728;28;20640;-51
2022/05/23 05:18:37;;;;;;;7.00;4.13;;;;;;;22.67;49.07;100549.91;5084023;28;20052;-47
2022/05/23 05:21:09;;;;;;;6.57;3.97;;;;;;;22.66;49.05;100540.09;5086426;28;20964;-49
2022/05/23 05:23:36;;;;;;;6.28;4.10;;;;;;;22.67;49.06;100531.00;5086755;28;20040;-49
2022/05/23 05:26:05;;;;;;;6.18;4.28;;;;;;;22.69;49.18;100525.38;5088685;28;20062;-48
2022/05/23 05:28:31;;;;;;;7.95;4.28;;;;;;;22.70;48.88;100520.81;5085867;28;20039;-47
2022/05/23 05:31:08;;;;;;;10.20;4.40;;;;;;;22.70;49.12;100520.81;5080134;28;20052;-52
2022/05/23 05:33:40;;;;;;;7.55;4.28;;;;;;;22.70;48.73;100523.53;5080574;28;20063;-51
2022/05/23 05:36:15;;;;;;;6.47;3.85;;;;;;;22.69;48.77;100517.28;5086203;28;20048;-49
2022/05/23 05:38:46;;;;;;;5.93;3.42;;;;;;;22.69;49.05;100503.78;5086432;28;20062;-48
2022/05/23 05:41:23;;;;;;;10.38;3.90;;;;;;;22.70;48.73;100502.75;5086774;28;20051;-49
2022/05/23 05:43:54;;;;;;;7.63;4.30;;;;;;;22.72;48.99;100499.88;5085238;28;20059;-47
2022/05/23 05:46:26;;;;;;;6.80;3.85;;;;;;;22.71;49.23;100495.47;5081974;28;20048;-48
2022/05/23 05:48:56;;;;;;;9.95;4.32;;;;;;;22.71;48.88;100492.75;5082057;28;20101;-48
2022/05/23 05:51:25;;;;;;;34.55;8.43;;;;;;;22.72;48.68;100480.94;5082021;28;20125;-52
2022/05/23 05:53:51;;;;;;;19.63;6.70;;;;;;;22.73;48.68;100479.91;5088413;28;20044;-51
2022/05/23 05:56:19;;;;;;;25.20;6.53;;;;;;;22.73;49.49;100483.44;5087600;28;20054;-51
2022/05/23 05:58:46;;;;;;;28.05;7.18;;;;;;;22.75;49.30;100480.53;5080069;28;20139;-52
2022/05/23 06:01:16;;;;;;;20.75;6.78;;;;;;;22.76;49.63;100483.06;5075354;28;20234;-51
2022/05/23 06:03:43;;;;;;;25.63;7.72;;;;;;;22.77;49.60;100478.50;5079249;28;20186;-51
2022/05/23 06:11:40;;;;;;;26.77;8.40;;;;;;;22.81;49.39;100477.06;5075557;28;20052;-53
2022/05/23 06:14:07;;;;;;;32.25;7.18;;;;;;;22.82;49.54;100482.28;5078798;28;20048;-52
2022/05/23 06:16:36;;;;;;;23.67;7.97;;;;;;;22.83;49.24;100475.00;5078908;28;20043;-52
2022/05/23 06:19:03;;;;;;;32.25;8.40;;;;;;;22.83;49.14;100481.25;5074467;28;20063;-51
2022/05/23 06:21:30;;;;;;;22.20;8.02;;;;;;;22.84;49.63;100490.22;5083863;28;20040;-50
2022/05/23 06:23:57;;;;;;;23.10;8.10;;;;;;;22.84;49.25;100479.41;5085750;28;20050;-51
2022/05/23 06:26:31;;;;;;;25.67;9.30;;;;;;;22.86;49.28;100480.03;5080271;28;20052;-48
2022/05/23 06:28:59;;;;;;;19.67;7.60;;;;;;;22.86;49.19;100480.84;5075283;28;20048;-52
2022/05/23 06:31:26;;;;;;;23.38;7.45;;;;;;;22.87;49.14;100481.69;5064902;28;20303;-52
2022/05/23 06:33:52;;;;;;;24.98;8.43;;;;;;;22.86;49.14;100471.91;5081608;28;20055;-48
2022/05/23 06:36:19;;;;;;;24.10;7.95;;;;;;;22.87;49.11;100470.88;5084870;28;20062;-51
2022/05/23 06:38:47;;;;;;;20.35;7.50;;;;;;;22.89;49.41;100466.13;5079367;28;20074;-52
2022/05/23 06:41:14;;;;;;;21.70;8.05;;;;;;;22.89;49.66;100458.84;5082662;28;20044;-51
2022/05/23 06:43:42;;;;;;;23.27;7.57;;;;;;;22.90;49.31;100454.28;5077936;28;20071;-48
2022/05/23 06:46:11;;;;;;;21.00;7.80;;;;;;;22.90;49.07;100444.34;5082342;28;20048;-50
2022/05/23 06:48:39;;;;;;;22.80;7.40;;;;;;;22.92;49.59;100430.66;5081838;28;20043;-51
2022/05/23 06:51:06;;;;;;;22.40;8.30;;;;;;;22.94;49.29;100433.97;5080910;28;20873;-51
2022/05/23 06:53:33;;;;;;;25.98;8.13;;;;;;;22.94;49.48;100428.56;5085757;28;20350;-51
2022/05/23 06:55:59;;;;;;;19.95;8.40;;;;;;;22.95;49.25;100430.22;5085195;28;20044;-49
2022/05/23 06:58:26;;;;;;;21.20;7.95;;;;;;;22.96;49.56;100423.81;5087695;28;20043;-52
2022/05/23 07:00:54;;;;;;;23.05;9.18;;;;;;;22.98;49.18;100421.72;5081421;28;20051;-49
2022/05/23 07:03:21;;;;;;;18.33;8.25;;;;;;;22.98;49.27;100410.09;5083554;28;20434;-52
2022/05/23 07:14:06;;;;;;;18.27;7.45;;;;;;;23.03;48.95;100413.03;5085959;28;20602;-53
2022/05/23 07:16:33;;;;;;;20.85;8.55;;;;;;;23.05;49.10;100416.38;5086612;28;20044;-50
2022/05/23 07:19:00;;;;;;;17.95;7.82;;;;;;;23.05;48.97;100411.81;5088358;28;20056;-52
2022/05/23 07:21:27;;;;;;;18.23;8.65;;;;;;;23.07;48.75;100411.59;5089344;28;20036;-51
2022/05/23 07:23:55;;;;;;;16.65;7.95;;;;;;;23.07;49.32;100407.03;5088936;28;20140;-52
2022/05/23 07:26:21;;;;;;;16.90;7.60;;;;;;;23.07;48.63;100401.63;5084977;28;20203;-53
2022/05/23 07:28:48;;;;;;;13.77;7.47;;;;;;;23.07;48.78;100401.63;5088094;28;20172;-52
2022/05/23 07:31:16;;;;;;;17.02;7.53;;;;;;;23.08;48.82;100395.22;5089292;28;20130;-50
2022/05/23 07:33:44;;;;;;;17.05;7.22;;;;;;;23.09;48.82;100398.75;5093106;28;20074;-52
2022/05/23 07:36:12;;;;;;;17.73;7.80;;;;;;;23.09;48.85;100402.28;5084636;28;20048;-50
2022/05/23 07:38:39;;;;;;;13.52;7.40;;;;;;;23.10;48.68;100403.09;5086497;28;20036;-51
2022/05/23 07:41:08;;;;;;;14.75;6.93;;;;;;;23.09;49.00;100396.88;5091861;28;20082;-51
2022/05/23 07:43:37;;;;;;;16.05;6.63;;;;;;;23.09;48.75;100393.34;5091771;28;20101;-50
2022/05/23 07:46:09;;;;;;;14.57;6.88;;;;;;;23.10;48.71;100395.00;5088273;28;20054;-50
2022/05/23 07:48:38;;;;;;;14.05;6.18;;;;;;;23.09;48.98;100394.16;5089747;28;20051;-48
2022/05/23 07:51:05;;;;;;;12.27;5.97;;;;;;;23.10;48.69;100385.00;5090161;28;20125;-50
2022/05/23 08:01:48;;;;;;;11.40;5.72;;;;;;;23.13;48.62;100381.94;5088548;28;20105;-48
2022/05/23 08:04:16;;;;;;;13.82;4.95;;;;;;;23.14;48.32;100380.06;5091642;28;20135;-53
2022/05/23 08:06:44;;;;;;;14.63;5.65;;;;;;;23.13;48.03;100373.81;5091826;28;20062;-50
2022/05/23 08:09:12;;;;;;;12.50;5.47;;;;;;;23.14;48.58;100367.38;5086784;28;20046;-49
2022/05/23 08:11:42;;;;;;;11.35;5.20;;;;;;;23.15;48.57;100374.44;5089855;28;20043;-48
2022/05/23 08:14:09;;;;;;;7.68;4.72;;;;;;;23.16;48.59;100375.28;5088831;28;20052;-48
2022/05/23 08:16:36;;;;;;;12.98;6.10;;;;;;;23.17;48.45;100368.84;5087404;28;20147;-49
2022/05/23 08:19:05;;;;;;;9.48;5.15;;;;;;;23.19;48.41;100368.63;5091851;28;20047;-51
2022/05/23 08:21:31;;;;;;;11.43;5.72;;;;;;;23.19;48.12;100368.63;5092967;28;20706;-53
2022/05/23 08:23:59;;;;;;;11.38;5.72;;;;;;;23.20;48.41;100367.63;5091583;28;20443;-51
2022/05/23 08:26:27;;;;;;;10.07;5.30;;;;;;;23.19;48.10;100371.34;5086521;28;20082;-50
2022/05/23 08:28:53;;;;;;;11.77;5.68;;;;;;;23.21;48.45;100364.72;5091361;28;20123;-51
2022/05/23 08:31:20;;;;;;;10.85;5.53;;;;;;;23.21;48.13;100355.75;5091939;28;20040;-50
2022/05/23 08:33:47;;;;;;;11.90;4.93;;;;;;;23.21;48.21;100362.00;5091038;28;20082;-50
2022/05/23 08:36:13;;;;;;;10.07;5.47;;;;;;;23.21;48.18;100353.91;5092051;28;20123;-51
2022/05/23 08:38:40;;;;;;;6.95;4.32;;;;;;;23.23;48.23;100356.38;5088790;28;20035;-54
2022/05/23 08:41:19;;;;;;;11.57;4.82;;;;;;;23.24;48.73;100355.38;5067281;28;20075;-49
2022/05/23 08:43:52;;;;;;;11.00;5.72;;;;;;;23.26;48.16;100346.00;5074829;28;20743;-49
2022/05/23 08:46:26;;;;;;;8.20;4.80;;;;;;;23.29;48.39;100345.63;5074403;28;20052;-50
2022/05/23 08:49:30;;;;;;;10.75;5.25;;;;;;;23.31;47.95;100335.41;5073011;28;20151;-58
2022/05/23 08:52:13;;;;;;;10.02;5.47;;;;;;;23.34;48.50;100329.59;5060442;28;20839;-58
2022/05/23 08:55:04;;;;;;;7.97;4.97;;;;;;;23.39;48.32;100331.72;5073439;28;20048;-58
2022/05/23 08:58:07;;;;;;;9.63;5.07;;;;;;;23.43;48.41;100324.03;5043270;28;20470;-53
2022/05/23 09:00:41;;;;;;;13.38;5.80;;;;;;;23.47;47.88;100315.31;5076135;28;20359;-58
2022/05/23 09:03:09;;;;;;;;;;;;;;;23.49;48.63;100318.66;5073595;28;20051;-58
2022/05/23 09:05:42;;;;;;;9.02;5.55;;;;;;;23.54;48.21;100304.53;5072855;28;19920;-55
2022/05/23 09:08:35;;;;;;;10.77;5.75;;;;;;;23.56;48.33;100303.28;5068749;28;20430;-58
2022/05/23 09:11:28;;;;;;;10.32;6.05;;;;;;;23.58;48.38;100305.78;5073945;28;20400;-57
2022/05/23 09:13:55;;;;;;;10.65;5.57;;;;;;;23.61;47.68;100303.50;5072651;28;20052;-56
2022/05/23 09:16:28;;;;;;;15.13;6.32;;;;;;;23.63;47.70;100301.41;5074164;28;20068;-53
2022/05/23 09:19:26;;;;;;;9.55;6.03;;;;;;;23.66;48.14;100296.69;5037412;28;20057;-57
2022/05/23 09:22:17;;;;;;;11.52;5.65;;;;;;;23.69;48.16;100296.28;5047690;28;20040;-53
2022/05/23 09:24:55;;;;;;;8.15;5.20;;;;;;;23.70;47.79;100287.94;5076116;28;20044;-52
2022/05/23 09:27:35;;;;;;;14.68;6.07;;;;;;;23.72;47.69;100283.19;5071414;28;20377;-54
2022/05/23 09:30:06;;;;;;;8.95;5.10;;;;;;;23.73;47.60;100282.13;5073005;28;20079;-54
2022/05/23 09:32:59;;;;;;;9.73;5.25;;;;;;;23.73;47.49;100279.41;5071585;28;20732;-53
2022/05/23 09:35:41;;;;;;;10.23;5.82;;;;;;;23.75;47.50;100271.09;5065169;28;20040;-54
2022/05/23 09:38:25;;;;;;;10.52;6.25;;;;;;;23.75;47.38;100273.78;5038290;28;20062;-57
2022/05/23 09:40:53;;;;;;;10.23;6.15;;;;;;;23.78;47.66;100273.38;5075730;28;20143;-57
2022/05/23 09:49:20;;;;;;;10.75;5.43;;;;;;;23.81;47.99;100251.34;5069808;28;20105;-57
2022/05/23 09:52:02;;;;;;;11.55;6.55;;;;;;;23.82;48.03;100242.16;5070752;28;20041;-57
2022/05/23 09:54:35;;;;;;;8.60;5.60;;;;;;;23.82;47.66;100240.28;5074757;28;20770;-57
2022/05/23 09:57:06;;;;;;;24.02;6.13;;;;;;;23.83;47.63;100228.41;5045780;28;20058;-57
2022/05/23 09:59:36;;;;;;;9.70;6.25;;;;;;;23.83;47.14;100223.00;5046705;28;20338;-56
2022/05/23 10:02:15;;;;;;;10.60;5.93;;;;;;;23.83;47.13;100222.19;5076839;28;20139;-57
2022/05/23 10:04:45;;;;;;;9.55;5.55;;;;;;;23.83;47.46;100217.59;5073901;28;20504;-57
2022/05/23 10:07:33;;;;;;;10.20;5.60;;;;;;;23.82;47.51;100204.28;5072875;28;20143;-57
2022/05/23 10:10:18;;;;;;;10.95;6.45;;;;;;;23.84;47.49;100207.59;5072327;28;20046;-56
2022/05/23 10:12:45;;;;;;;9.27;6.25;;;;;;;23.84;47.73;100196.78;5073458;28;20465;-56
2022/05/23 10:15:28;;;;;;;11.95;6.60;;;;;;;23.85;47.51;100196.59;5068396;28;20362;-56
2022/05/23 10:18:03;;;;;;;10.60;6.10;;;;;;;23.85;47.33;100193.03;5067245;28;20044;-57
2022/05/23 10:20:51;;;;;;;10.35;7.03;;;;;;;23.85;47.18;100198.47;5052070;28;20540;-57
2022/05/23 10:23:22;;;;;;;10.90;6.68;;;;;;;23.86;47.22;100189.28;5057160;28;20050;-57
2022/05/23 10:26:20;;;;;;;9.25;6.25;;;;;;;23.84;47.44;100197.63;5072913;28;20430;-57
2022/05/23 10:29:01;;;;;;;12.48;7.57;;;;;;;23.85;47.42;100199.28;5069556;28;20047;-57
2022/05/23 10:31:36;;;;;;;11.30;7.20;;;;;;;23.86;47.89;100184.72;5074968;28;20131;-58
2022/05/23 10:34:30;;;;;;;10.98;6.97;;;;;;;23.86;47.74;100183.88;5066746;28;20051;-57
2022/05/23 10:37:01;;;;;;;11.75;7.53;;;;;;;23.87;47.51;100183.66;5069779;28;20638;-57
2022/05/23 10:42:36;;;;;;;14.13;7.88;;;;;;;23.86;47.47;100163.06;5008907;28;20110;-57
2022/05/23 10:45:39;;;;;;;13.07;7.93;;;;;;;23.87;47.13;100158.47;5066043;28;20542;-57
2022/05/23 10:48:25;;;;;;;13.93;8.30;;;;;;;23.87;47.20;100137.66;5069202;28;20063;-57
2022/05/23 10:51:04;;;;;;;12.73;8.32;;;;;;;23.88;47.80;100143.91;5072465;28;20062;-57
2022/05/23 10:54:03;;;;;;;13.13;8.50;;;;;;;23.88;47.63;100146.63;5071005;28;20040;-57
2022/05/23 10:56:41;;;;;;;14.30;8.82;;;;;;;23.89;47.16;100146.41;5069514;28;20056;-58
2022/05/23 10:59:42;;;;;;;12.95;7.97;;;;;;;23.88;47.66;100138.50;5070363;28;20058;-57
2022/05/23 11:02:46;;;;;;;13.05;8.32;;;;;;;23.90;47.07;100139.13;5015528;28;20056;-57
2022/05/23 11:05:38;;;;;;;13.07;8.57;;;;;;;23.91;47.61;100132.66;5074090;28;20130;-57
2022/05/23 11:08:38;;;;;;;11.38;7.43;;;;;;;23.91;47.36;100131.81;5073813;28;20716;-56
2022/05/23 11:11:27;;;;;;;13.00;8.05;;;;;;;23.93;47.18;100132.47;5076889;28;20048;-57
2022/05/23 11:14:03;;;;;;;11.57;7.53;;;;;;;23.93;47.43;100114.34;5073104;28;20049;-57
2022/05/23 11:16:45;;;;;;;10.50;7.13;;;;;;;23.95;47.10;100116.81;5074798;28;20051;-57
2022/05/23 11:19:31;;;;;;;11.88;7.68;;;;;;;23.97;47.73;100110.16;5076878;28;20382;-56
2022/05/23 11:22:15;;;;;;;12.43;7.63;;;;;;;23.99;47.71;100113.47;5013168;28;20044;-56
2022/05/23 11:25:06;;;;;;;13.18;7.35;;;;;;;24.01;47.80;100111.41;5077264;28;20048;-57
2022/05/23 11:36:06;;;;;;;14.95;7.07;;;;;;;24.08;47.37;100089.72;5074549;28;20045;-56
2022/05/23 11:38:33;;;;;;;13.55;7.28;;;;;;;24.10;47.61;100088.47;5079116;28;20423;-56
2022/05/23 11:41:30;;;;;;;11.40;6.50;;;;;;;24.10;47.78;100087.66;5033427;28;20072;-56
2022/05/23 11:43:57;;;;;;;12.23;6.60;;;;;;;24.12;47.47;100066.59;5075141;28;20051;-56
2022/05/23 11:47:04;;;;;;;11.40;6.13;;;;;;;24.10;47.44;100077.66;5078189;28;20062;-57
2022/05/23 11:49:56;;;;;;;10.52;6.50;;;;;;;24.11;47.56;100063.06;5076778;28;20048;-57
2022/05/23 11:52:42;;;;;;;14.50;6.93;;;;;;;24.11;47.12;100052.22;5077409;28;20053;-57
2022/05/23 11:55:11;;;;;;;16.50;6.10;;;;;;;24.11;47.19;100038.69;5075341;28;20807;-60
2022/05/23 11:57:40;;;;;;;11.50;6.47;;;;;;;24.12;46.89;100040.38;5078553;28;20127;-57
2022/05/23 12:00:08;;;;;;;12.27;6.05;;;;;;;24.13;47.58;100031.19;5076602;28;20048;-56
2022/05/23 12:02:39;;;;;;;10.65;6.00;;;;;;;24.13;46.86;100025.78;5018963;28;20136;-57
2022/05/23 12:05:12;;;;;;;11.80;6.13;;;;;;;24.14;46.81;100019.31;5078433;28;20121;-57
2022/05/23 12:07:41;;;;;;;11.82;5.97;;;;;;;24.14;47.51;100013.06;5076736;28;20106;-57
2022/05/23 12:10:20;;;;;;;12.80;6.63;;;;;;;24.14;47.13;100007.66;5071265;28;20055;-57
2022/05/23 12:12:55;;;;;;;12.45;6.25;;;;;;;24.15;47.39;100009.31;5071761;28;20036;-57
2022/05/23 12:15:47;;;;;;;9.65;5.53;;;;;;;24.15;46.84;99998.47;5070563;28;20045;-57
2022/05/23 12:18:23;;;;;;;8.75;5.13;;;;;;;24.17;47.44;100004.53;5079355;28;20124;-57
2022/05/23 12:20:53;;;;;;;17.65;5.13;;;;;;;24.17;46.88;99999.13;5084896;28;20044;-57
2022/05/23 12:23:39;;;;;;;43.75;6.53;;;;;;;24.17;47.52;100001.00;5023183;28;20049;-57
2022/05/23 12:26:12;;;;;;;38.03;6.15;;;;;;;24.17;46.83;99993.69;5076242;28;20039;-57
2022/05/23 12:28:57;;;;;;;52.17;7.85;;;;;;;24.19;47.65;99985.34;5072359;28;20048;-57
2022/05/23 12:31:29;;;;;;;38.63;6.50;;;;;;;24.20;47.57;99987.00;5077809;28;20062;-57
2022/05/23 12:34:07;;;;;;;20.00;5.53;;;;;;;24.19;47.94;99986.19;5073644;28;20044;-57
2022/05/23 12:36:47;;;;;;;19.33;5.72;;;;;;;24.20;47.45;99976.16;5078940;28;20089;-56
2022/05/23 12:39:20;;;;;;;19.88;5.38;;;;;;;24.19;47.65;99979.94;5036091;28;20433;-56